Time;durP1;ratioP1;P1;durP2;ratioP2;P2;SDS_P1;SDS_P2;PMS_P1;PMS_P2;Temp;Humidity;BMP_temperature;BMP_pressure;BME280_temperature;BME280_humidity;BME280_pressure;Samples;Min_cycle;Max_cycle;Signal;HPM_P1;HPM_P2
2021/07/03 00:00:16;;;;;;;27.40;20.17;;;14.20;99.90;;;;;;5066248;28;20024;-77
2021/07/03 00:02:41;;;;;;;23.48;19.30;;;14.20;99.90;;;;;;5064990;28;20474;-77
2021/07/03 00:05:08;;;;;;;25.80;19.60;;;14.30;99.90;;;;;;5058706;28;20063;-76
2021/07/03 00:07:33;;;;;;;26.25;19.98;;;14.30;99.90;;;;;;5061014;28;20117;-76
2021/07/03 00:09:59;;;;;;;33.67;19.90;;;14.20;99.90;;;;;;5070315;28;20073;-76
2021/07/03 00:12:24;;;;;;;33.92;24.20;;;14.40;99.90;;;;;;5061144;28;20044;-76
2021/07/03 00:14:50;;;;;;;28.25;21.42;;;14.10;99.90;;;;;;5065502;28;20036;-75
2021/07/03 00:17:15;;;;;;;31.50;22.38;;;14.10;99.90;;;;;;5063323;28;20051;-75
2021/07/03 00:19:41;;;;;;;31.50;22.75;;;14.00;99.90;;;;;;5058660;28;20391;-76
2021/07/03 00:22:06;;;;;;;29.10;21.08;;;14.00;99.90;;;;;;5061045;28;20100;-76
2021/07/03 00:24:32;;;;;;;25.60;19.10;;;13.90;99.90;;;;;;5047316;28;20023;-76
2021/07/03 00:26:57;;;;;;;25.95;18.27;;;13.90;99.90;;;;;;5071348;28;20111;-77
2021/07/03 00:29:23;;;;;;;32.58;19.50;;;14.10;99.90;;;;;;5067239;28;20024;-77
2021/07/03 00:31:48;;;;;;;26.40;18.08;;;13.90;99.90;;;;;;5063493;28;20020;-77
2021/07/03 00:34:14;;;;;;;25.13;17.25;;;13.90;99.90;;;;;;5058489;28;20453;-77
2021/07/03 00:36:39;;;;;;;28.42;17.83;;;13.90;99.90;;;;;;5060297;28;20036;-76
2021/07/03 00:39:05;;;;;;;24.30;17.73;;;13.90;99.90;;;;;;5065388;28;20044;-77
2021/07/03 00:41:31;;;;;;;26.30;17.55;;;13.80;99.90;;;;;;5063245;28;20383;-76
2021/07/03 00:43:56;;;;;;;22.48;17.83;;;13.80;99.90;;;;;;5065511;28;20468;-77
2021/07/03 00:46:22;;;;;;;23.50;17.08;;;13.80;99.90;;;;;;5079450;28;20108;-78
2021/07/03 00:48:48;;;;;;;25.55;20.40;;;13.70;99.90;;;;;;5048367;28;20072;-77
2021/07/03 00:51:13;;;;;;;26.27;18.58;;;13.60;99.90;;;;;;5067807;28;20037;-76
2021/07/03 00:53:40;;;;;;;22.55;17.83;;;13.40;99.90;;;;;;5052611;28;20053;-77
2021/07/03 00:56:06;;;;;;;19.45;16.13;;;13.30;99.90;;;;;;5083936;28;20120;-77
2021/07/03 00:58:32;;;;;;;21.77;16.58;;;13.40;99.90;;;;;;5060732;28;20035;-77
2021/07/03 01:00:57;;;;;;;24.48;17.15;;;13.40;99.90;;;;;;5080768;28;20013;-77
2021/07/03 01:03:23;;;;;;;27.13;19.33;;;13.30;99.90;;;;;;5067136;28;20025;-77
2021/07/03 01:05:49;;;;;;;25.02;18.05;;;13.20;99.90;;;;;;5050063;28;20566;-78
2021/07/03 01:08:16;;;;;;;27.85;19.48;;;13.20;99.90;;;;;;5062849;28;20510;-78
2021/07/03 01:10:41;;;;;;;20.27;15.52;;;13.20;99.90;;;;;;5065061;28;20033;-78
2021/07/03 01:13:07;;;;;;;23.58;17.50;;;13.10;99.90;;;;;;5070061;28;20035;-79
2021/07/03 01:15:32;;;;;;;29.77;19.23;;;13.10;99.90;;;;;;5067533;28;20021;-79
2021/07/03 01:17:58;;;;;;;22.13;15.95;;;13.10;99.90;;;;;;5044881;28;20107;-79
2021/07/03 01:20:25;;;;;;;18.80;16.13;;;13.10;99.90;;;;;;5062638;28;20025;-77
2021/07/03 01:22:51;;;;;;;19.23;15.00;;;13.10;99.90;;;;;;5047040;28;20025;-76
2021/07/03 01:25:17;;;;;;;18.67;15.18;;;13.00;99.90;;;;;;5044044;28;20024;-76
2021/07/03 01:27:54;;;;;;;22.15;16.52;;;13.00;99.90;;;;;;5071568;28;20020;-76
2021/07/03 01:30:20;;;;;;;18.73;14.43;;;12.90;99.90;;;;;;5071574;28;20028;-76
2021/07/03 01:32:45;;;;;;;20.42;16.05;;;12.90;99.90;;;;;;5040096;28;20017;-76
2021/07/03 01:35:11;;;;;;;18.45;14.93;;;12.80;99.90;;;;;;5058646;28;20028;-77
2021/07/03 01:37:36;;;;;;;19.33;14.27;;;12.80;99.90;;;;;;5046660;28;20036;-76
2021/07/03 01:40:04;;;;;;;16.90;13.55;;;12.80;99.90;;;;;;5063800;28;20029;-76
2021/07/03 01:42:30;;;;;;;19.17;14.23;;;12.80;99.90;;;;;;5039985;28;20021;-76
2021/07/03 01:44:55;;;;;;;18.73;13.02;;;12.80;99.90;;;;;;5058224;28;20028;-76
2021/07/03 01:47:21;;;;;;;20.60;13.23;;;12.80;99.90;;;;;;5047311;28;20025;-77
2021/07/03 01:49:46;;;;;;;17.38;13.20;;;12.80;99.90;;;;;;5065267;28;20035;-76
2021/07/03 01:52:17;;;;;;;17.05;12.63;;;12.70;99.90;;;;;;5040492;28;20394;-77
2021/07/03 01:54:42;;;;;;;16.20;12.98;;;12.70;99.90;;;;;;5040427;28;20036;-75
2021/07/03 01:57:08;;;;;;;16.85;13.70;;;12.80;99.90;;;;;;5064361;28;20403;-76
2021/07/03 01:59:34;;;;;;;15.05;12.57;;;12.80;99.90;;;;;;5064085;28;20429;-75
2021/07/03 02:02:02;;;;;;;19.98;13.32;;;12.90;99.90;;;;;;5057648;28;20021;-76
2021/07/03 02:04:28;;;;;;;18.95;14.02;;;12.90;99.90;;;;;;5057599;28;20021;-75
2021/07/03 02:06:53;;;;;;;17.20;14.13;;;12.90;99.90;;;;;;5046406;28;20533;-77
2021/07/03 02:09:20;;;;;;;22.75;14.82;;;12.90;99.90;;;;;;5064364;28;20027;-77
2021/07/03 02:11:46;;;;;;;26.08;17.75;;;12.80;99.90;;;;;;5059093;28;20498;-77
2021/07/03 02:14:12;;;;;;;25.98;18.35;;;12.70;99.90;;;;;;5061026;28;20029;-77
2021/07/03 02:16:38;;;;;;;23.58;18.42;;;12.80;99.90;;;;;;5061163;28;20040;-77
2021/07/03 02:19:05;;;;;;;22.38;16.88;;;12.80;99.90;;;;;;5060952;28;20025;-77
2021/07/03 02:21:32;;;;;;;23.60;17.98;;;12.80;99.90;;;;;;5074456;28;20027;-76
2021/07/03 02:23:58;;;;;;;23.77;17.75;;;12.80;99.90;;;;;;5063362;28;20427;-78
2021/07/03 02:26:24;;;;;;;22.77;16.58;;;12.80;99.90;;;;;;5058423;28;20035;-75
2021/07/03 02:28:50;;;;;;;20.48;16.27;;;13.00;99.90;;;;;;5056495;28;20025;-75
2021/07/03 02:31:16;;;;;;;24.60;17.83;;;12.90;99.90;;;;;;5049591;28;20516;-74
2021/07/03 02:33:42;;;;;;;22.00;15.32;;;12.90;99.90;;;;;;5054279;28;20025;-75
2021/07/03 02:36:07;;;;;;;20.52;15.32;;;12.90;99.90;;;;;;5060739;28;20026;-74
2021/07/03 02:38:33;;;;;;;20.48;15.65;;;12.80;99.90;;;;;;5042856;28;20078;-74
2021/07/03 02:40:58;;;;;;;28.05;17.05;;;12.90;99.90;;;;;;5067572;28;20025;-75
2021/07/03 02:43:24;;;;;;;24.85;15.98;;;12.90;99.90;;;;;;5054205;28;20017;-75
2021/07/03 02:45:49;;;;;;;21.50;15.75;;;12.90;99.90;;;;;;5049339;28;20025;-75
2021/07/03 02:48:15;;;;;;;22.85;15.20;;;13.00;99.90;;;;;;5067118;28;20382;-76
2021/07/03 02:50:41;;;;;;;23.45;15.27;;;13.00;99.90;;;;;;5067935;28;20384;-76
2021/07/03 02:53:06;;;;;;;22.02;15.95;;;13.10;99.90;;;;;;5049227;28;20020;-75
2021/07/03 02:55:32;;;;;;;21.98;15.75;;;13.00;99.90;;;;;;5054393;28;20025;-75
2021/07/03 02:57:57;;;;;;;21.27;14.98;;;12.80;99.90;;;;;;5066070;28;20466;-75
2021/07/03 03:00:24;;;;;;;25.20;16.63;;;12.80;99.90;;;;;;5060483;28;20537;-75
2021/07/03 03:02:49;;;;;;;24.98;16.58;;;12.80;99.90;;;;;;5043235;28;20486;-76
2021/07/03 03:05:15;;;;;;;22.88;15.10;;;12.70;99.90;;;;;;5066895;28;20056;-76
2021/07/03 03:07:42;;;;;;;19.27;15.25;;;12.70;99.90;;;;;;5047949;28;20021;-76
2021/07/03 03:10:11;;;;;;;20.10;14.27;;;12.80;99.90;;;;;;5060052;28;20033;-75
2021/07/03 03:12:37;;;;;;;23.02;15.65;;;12.70;99.90;;;;;;5043126;28;20028;-75
2021/07/03 03:15:03;;;;;;;24.75;14.50;;;12.50;99.90;;;;;;5068340;28;20457;-77
2021/07/03 03:17:29;;;;;;;17.00;14.07;;;12.70;99.90;;;;;;5051196;28;20029;-75
2021/07/03 03:19:54;;;;;;;26.38;13.85;;;12.80;99.90;;;;;;5059952;28;20073;-76
2021/07/03 03:22:20;;;;;;;20.70;14.68;;;12.80;99.90;;;;;;5061010;28;20024;-77
2021/07/03 03:24:46;;;;;;;21.00;14.88;;;12.80;99.90;;;;;;5067634;28;20021;-76
2021/07/03 03:27:12;;;;;;;17.02;13.18;;;12.70;99.90;;;;;;5073174;28;20028;-76
2021/07/03 03:29:38;;;;;;;15.55;12.80;;;12.70;99.90;;;;;;5067517;28;20418;-77
2021/07/03 03:32:03;;;;;;;22.45;12.90;;;12.90;99.90;;;;;;5049592;28;20162;-77
2021/07/03 03:34:29;;;;;;;26.63;14.18;;;12.90;99.90;;;;;;5061393;28;20035;-77
2021/07/03 03:36:55;;;;;;;18.85;13.43;;;13.00;99.90;;;;;;5043921;28;20074;-78
2021/07/03 03:39:20;;;;;;;21.35;14.70;;;12.90;99.90;;;;;;5059768;28;20028;-76
2021/07/03 03:41:46;;;;;;;18.52;14.80;;;12.80;99.90;;;;;;5060270;28;20029;-76
2021/07/03 03:44:11;;;;;;;22.35;15.60;;;12.80;99.90;;;;;;5041471;28;20021;-76
2021/07/03 03:46:37;;;;;;;22.20;14.68;;;12.70;99.90;;;;;;5042985;28;20028;-76
2021/07/03 03:49:03;;;;;;;18.40;14.10;;;12.70;99.90;;;;;;5075251;28;20027;-76
2021/07/03 03:51:28;;;;;;;18.77;14.02;;;12.90;99.90;;;;;;5060192;28;20033;-76
2021/07/03 03:53:54;;;;;;;18.88;13.57;;;13.10;99.90;;;;;;5072498;28;20051;-75
2021/07/03 03:56:19;;;;;;;19.58;13.85;;;13.10;99.90;;;;;;5059458;28;20021;-75
2021/07/03 03:58:45;;;;;;;17.95;13.57;;;13.00;99.90;;;;;;5048048;28;20509;-75
2021/07/03 04:01:10;;;;;;;17.23;13.52;;;12.80;99.90;;;;;;5047452;28;20016;-76
2021/07/03 04:03:35;;;;;;;22.30;14.25;;;12.70;99.90;;;;;;5059113;28;20017;-76
2021/07/03 04:06:01;;;;;;;19.08;14.00;;;12.80;99.90;;;;;;5041945;28;20502;-75
2021/07/03 04:08:27;;;;;;;17.63;13.82;;;13.00;99.90;;;;;;5048160;28;20483;-76
2021/07/03 04:10:52;;;;;;;22.70;13.57;;;13.00;99.90;;;;;;5047071;28;20558;-76
2021/07/03 04:13:18;;;;;;;16.67;12.80;;;13.10;99.90;;;;;;5040896;28;20047;-76
2021/07/03 04:15:43;;;;;;;19.73;13.23;;;13.20;99.90;;;;;;5041809;28;20036;-75
2021/07/03 04:18:09;;;;;;;14.77;12.55;;;13.00;99.90;;;;;;5071145;28;20028;-75
2021/07/03 04:20:34;;;;;;;19.40;13.90;;;13.20;99.90;;;;;;5072208;28;20482;-76
2021/07/03 04:23:00;;;;;;;17.73;12.75;;;13.10;99.90;;;;;;5053118;28;20100;-76
2021/07/03 04:25:25;;;;;;;20.55;13.65;;;13.10;99.90;;;;;;5045942;28;20032;-75
2021/07/03 04:27:51;;;;;;;18.60;13.13;;;13.10;99.90;;;;;;5072752;28;20474;-76
2021/07/03 04:30:17;;;;;;;18.20;13.43;;;13.20;99.90;;;;;;5059955;28;20025;-76
2021/07/03 04:32:44;;;;;;;16.42;12.52;;;13.20;99.90;;;;;;5065351;28;20021;-76
2021/07/03 04:35:11;;;;;;;18.73;13.40;;;13.10;99.90;;;;;;5033531;28;20025;-75
2021/07/03 04:37:37;;;;;;;18.38;12.35;;;13.20;99.90;;;;;;5065457;28;20386;-76
2021/07/03 04:40:04;;;;;;;20.58;13.48;;;13.30;99.90;;;;;;5064712;28;20074;-76
2021/07/03 04:42:30;;;;;;;20.25;14.18;;;13.30;99.90;;;;;;5040732;28;20024;-75
2021/07/03 04:44:56;;;;;;;20.13;14.77;;;13.10;99.90;;;;;;5040952;28;20029;-75
2021/07/03 04:47:21;;;;;;;17.90;14.13;;;13.10;99.90;;;;;;5039969;28;20108;-74
2021/07/03 04:49:47;;;;;;;15.68;12.88;;;13.30;99.90;;;;;;5071875;28;20036;-75
2021/07/03 04:52:12;;;;;;;16.42;13.05;;;13.70;99.90;;;;;;5058302;28;20028;-76
2021/07/03 04:54:38;;;;;;;15.32;13.02;;;13.80;99.90;;;;;;5041122;28;20029;-74
2021/07/03 04:57:07;;;;;;;20.80;14.23;;;13.90;99.90;;;;;;5070882;28;20032;-75
2021/07/03 04:59:40;;;;;;;17.80;13.18;;;13.80;99.90;;;;;;5058911;28;20028;-73
2021/07/03 05:02:07;;;;;;;17.15;11.80;;;13.80;99.90;;;;;;5051879;28;20035;-76
2021/07/03 05:04:33;;;;;;;15.45;11.65;;;14.00;99.90;;;;;;5047077;28;20115;-76
2021/07/03 05:06:59;;;;;;;17.70;13.20;;;14.40;99.90;;;;;;5032370;28;20175;-76
2021/07/03 05:09:24;;;;;;;15.43;11.57;;;14.50;99.90;;;;;;5046144;28;20157;-76
2021/07/03 05:11:50;;;;;;;19.35;14.15;;;14.50;99.90;;;;;;5032990;28;20534;-75
2021/07/03 05:14:16;;;;;;;15.85;13.38;;;14.40;99.90;;;;;;5046686;28;20040;-76
2021/07/03 05:16:41;;;;;;;18.80;12.93;;;14.40;99.90;;;;;;5052649;28;20026;-75
2021/07/03 05:19:07;;;;;;;21.83;15.10;;;14.20;99.90;;;;;;5052311;28;20020;-75
2021/07/03 05:21:32;;;;;;;25.65;15.60;;;14.20;99.90;;;;;;5058113;28;20105;-75
2021/07/03 05:23:58;;;;;;;19.00;14.02;;;14.20;99.90;;;;;;5071482;28;20515;-74
2021/07/03 05:26:23;;;;;;;19.40;14.52;;;14.20;99.90;;;;;;5052930;28;20566;-76
2021/07/03 05:28:49;;;;;;;20.13;14.15;;;14.30;99.90;;;;;;5071173;28;20032;-76
2021/07/03 05:31:14;;;;;;;22.38;14.38;;;14.40;99.90;;;;;;5058502;28;20039;-76
2021/07/03 05:33:40;;;;;;;20.30;14.27;;;14.40;99.90;;;;;;5068287;28;20025;-76
2021/07/03 05:36:06;;;;;;;17.75;14.02;;;14.60;99.90;;;;;;5040501;28;20035;-76
2021/07/03 05:38:39;;;;;;;20.25;14.30;;;14.70;99.90;;;;;;5070853;28;20094;-76
2021/07/03 05:41:05;;;;;;;17.13;14.82;;;14.90;99.90;;;;;;5041806;28;20020;-76
2021/07/03 05:43:30;;;;;;;17.65;14.85;;;15.10;99.90;;;;;;5038432;28;20550;-77
2021/07/03 05:45:56;;;;;;;19.75;14.63;;;15.20;99.90;;;;;;5041367;28;20031;-76
2021/07/03 05:48:22;;;;;;;19.77;14.43;;;15.30;99.90;;;;;;5043779;28;20025;-76
2021/07/03 05:50:48;;;;;;;18.38;13.98;;;15.20;99.90;;;;;;5067194;28;20092;-75
2021/07/03 05:53:13;;;;;;;19.15;13.77;;;15.30;99.90;;;;;;5050828;28;20037;-77
2021/07/03 05:55:39;;;;;;;19.75;13.60;;;15.40;99.90;;;;;;5037340;28;20036;-76
2021/07/03 05:58:04;;;;;;;19.33;13.27;;;15.40;99.90;;;;;;5050787;28;20031;-78
2021/07/03 06:00:30;;;;;;;17.30;12.95;;;15.40;99.90;;;;;;5062558;28;20023;-76
2021/07/03 06:02:55;;;;;;;18.95;13.80;;;15.50;99.90;;;;;;5043362;28;20024;-75
2021/07/03 06:05:21;;;;;;;15.65;12.77;;;15.80;99.90;;;;;;5049023;28;20033;-76
2021/07/03 06:07:46;;;;;;;15.35;12.40;;;16.10;99.90;;;;;;5068242;28;20020;-75
2021/07/03 06:10:13;;;;;;;16.75;12.93;;;16.00;99.90;;;;;;5063344;28;20074;-76
2021/07/03 06:12:38;;;;;;;19.02;13.40;;;16.10;99.90;;;;;;5060296;28;20025;-76
2021/07/03 06:15:06;;;;;;;17.73;13.25;;;15.80;99.90;;;;;;5061659;28;20030;-76
2021/07/03 06:17:32;;;;;;;18.23;13.05;;;15.60;99.90;;;;;;5041992;28;20087;-76
2021/07/03 06:19:57;;;;;;;16.88;13.13;;;15.80;99.90;;;;;;5061783;28;20028;-76
2021/07/03 06:22:23;;;;;;;22.23;14.10;;;15.90;99.90;;;;;;5060428;28;20096;-77
2021/07/03 06:24:48;;;;;;;19.00;14.02;;;15.80;99.90;;;;;;5062786;28;20420;-75
2021/07/03 06:27:14;;;;;;;15.55;12.80;;;16.10;99.90;;;;;;5075840;28;20494;-76
2021/07/03 06:29:40;;;;;;;16.52;13.50;;;16.40;99.90;;;;;;5067218;28;20036;-76
2021/07/03 06:32:06;;;;;;;17.85;13.15;;;16.50;99.90;;;;;;5067532;28;20037;-77
2021/07/03 06:34:32;;;;;;;17.48;13.45;;;16.60;99.90;;;;;;5043727;28;20029;-77
2021/07/03 06:36:58;;;;;;;17.60;12.48;;;16.60;99.90;;;;;;5061738;28;20025;-76
2021/07/03 06:39:24;;;;;;;19.50;13.18;;;16.70;99.90;;;;;;5049737;28;20532;-77
2021/07/03 06:41:50;;;;;;;16.90;13.40;;;16.50;99.90;;;;;;5067898;28;20020;-76
2021/07/03 06:44:15;;;;;;;15.98;13.07;;;16.60;99.90;;;;;;5036283;28;20029;-76
2021/07/03 06:46:41;;;;;;;19.63;13.75;;;16.80;99.90;;;;;;5067042;28;20048;-76
2021/07/03 06:49:06;;;;;;;14.75;11.88;;;17.20;99.90;;;;;;5043081;28;20078;-76
2021/07/03 06:51:32;;;;;;;15.98;12.23;;;17.40;99.90;;;;;;5042423;28;20032;-76
2021/07/03 06:54:00;;;;;;;16.63;12.88;;;17.50;99.90;;;;;;5074102;28;20020;-76
2021/07/03 06:56:26;;;;;;;15.90;12.43;;;17.50;99.90;;;;;;5042429;28;20111;-75
2021/07/03 06:58:52;;;;;;;17.02;12.48;;;17.40;99.90;;;;;;5073638;28;20091;-76
2021/07/03 07:01:18;;;;;;;16.48;13.35;;;17.40;99.90;;;;;;5073745;28;20497;-75
2021/07/03 07:03:43;;;;;;;16.02;13.02;;;17.50;99.90;;;;;;5066992;28;20064;-75
2021/07/03 07:06:09;;;;;;;15.90;12.98;;;17.60;99.90;;;;;;5048693;28;20029;-76
2021/07/03 07:08:34;;;;;;;16.25;13.13;;;17.40;99.90;;;;;;5060346;28;20025;-76
2021/07/03 07:11:00;;;;;;;18.35;13.38;;;17.40;99.90;;;;;;5060485;28;20487;-76
2021/07/03 07:13:25;;;;;;;17.73;13.13;;;17.40;99.90;;;;;;5049204;28;20081;-76
2021/07/03 07:15:51;;;;;;;18.95;12.60;;;17.60;99.90;;;;;;5066223;28;20077;-76
2021/07/03 07:18:16;;;;;;;15.35;12.77;;;18.00;99.90;;;;;;5060346;28;20033;-76
2021/07/03 07:20:42;;;;;;;17.58;12.45;;;18.00;99.90;;;;;;5043167;28;20098;-77
2021/07/03 07:23:07;;;;;;;14.73;12.20;;;17.90;99.90;;;;;;5067816;28;20364;-76
2021/07/03 07:25:33;;;;;;;17.00;12.23;;;17.90;99.90;;;;;;5048964;28;20032;-76
2021/07/03 07:27:59;;;;;;;15.18;11.70;;;18.10;99.90;;;;;;5055374;28;20543;-76
2021/07/03 07:30:24;;;;;;;14.75;11.45;;;18.30;99.90;;;;;;5060127;28;20017;-76
2021/07/03 07:32:50;;;;;;;16.88;11.63;;;18.50;99.90;;;;;;5066820;28;20107;-76
2021/07/03 07:35:16;;;;;;;13.77;11.48;;;18.60;99.90;;;;;;5048323;28;20074;-76
2021/07/03 07:37:42;;;;;;;18.10;13.43;;;18.60;99.90;;;;;;5041761;28;20473;-75
2021/07/03 07:40:08;;;;;;;16.67;13.10;;;18.40;99.90;;;;;;5060014;28;20029;-76
2021/07/03 07:42:34;;;;;;;16.35;12.13;;;18.30;99.90;;;;;;5066320;28;20028;-76
2021/07/03 07:45:00;;;;;;;15.23;12.27;;;18.40;99.90;;;;;;5066047;28;20025;-76
2021/07/03 07:47:26;;;;;;;15.25;11.32;;;18.50;99.90;;;;;;5059298;28;20025;-76
2021/07/03 07:49:51;;;;;;;13.55;11.85;;;18.50;99.90;;;;;;5042279;28;20021;-76
2021/07/03 07:52:17;;;;;;;15.60;11.75;;;18.80;99.90;;;;;;5072235;28;20025;-76
2021/07/03 07:54:42;;;;;;;15.50;11.23;;;18.70;99.90;;;;;;5054795;28;20509;-76
2021/07/03 07:57:08;;;;;;;14.50;11.65;;;19.10;99.90;;;;;;5054784;28;20474;-76
2021/07/03 07:59:33;;;;;;;16.80;11.95;;;19.20;99.90;;;;;;5042307;28;20170;-77
2021/07/03 08:01:59;;;;;;;15.88;11.85;;;19.10;99.90;;;;;;5048604;28;20071;-77
2021/07/03 08:04:24;;;;;;;13.68;11.25;;;18.80;99.90;;;;;;5065071;28;20052;-76
2021/07/03 08:06:50;;;;;;;16.67;12.25;;;18.70;99.90;;;;;;5042185;28;20111;-78
2021/07/03 08:09:15;;;;;;;16.23;11.60;;;18.80;99.90;;;;;;5054234;28;20025;-76
2021/07/03 08:11:41;;;;;;;15.65;11.48;;;18.90;99.90;;;;;;5060754;28;20115;-76
2021/07/03 08:14:07;;;;;;;14.77;11.68;;;19.30;99.90;;;;;;5075194;28;20032;-76
2021/07/03 08:16:33;;;;;;;13.82;11.20;;;19.40;99.90;;;;;;5068302;28;20032;-76
2021/07/03 08:18:58;;;;;;;14.65;11.20;;;19.60;99.90;;;;;;5059615;28;20025;-76
2021/07/03 08:21:24;;;;;;;13.73;10.80;;;19.70;99.90;;;;;;5067531;28;20112;-77
2021/07/03 08:23:50;;;;;;;15.45;11.77;;;19.60;99.90;;;;;;5063754;28;20356;-76
2021/07/03 08:26:16;;;;;;;16.85;11.73;;;19.40;99.90;;;;;;5049410;28;20127;-76
2021/07/03 08:28:41;;;;;;;14.07;11.55;;;19.50;99.90;;;;;;5072017;28;20447;-76
2021/07/03 08:31:07;;;;;;;14.40;10.85;;;19.60;99.90;;;;;;5058831;28;20029;-76
2021/07/03 08:33:33;;;;;;;16.88;12.13;;;19.60;99.90;;;;;;5059398;28;20025;-76
2021/07/03 08:35:58;;;;;;;14.80;11.05;;;19.50;99.90;;;;;;5053326;28;20028;-77
2021/07/03 08:38:24;;;;;;;13.60;11.52;;;19.70;99.90;;;;;;5068361;28;20024;-76
2021/07/03 08:40:50;;;;;;;14.98;11.77;;;19.60;99.90;;;;;;5058265;28;20025;-76
2021/07/03 08:43:16;;;;;;;14.45;11.05;;;19.80;99.90;;;;;;5059276;28;20029;-76
2021/07/03 08:45:41;;;;;;;13.43;10.52;;;19.80;99.90;;;;;;5071294;28;20069;-76
2021/07/03 08:48:07;;;;;;;14.88;11.60;;;20.10;99.90;;;;;;5041406;28;20025;-76
2021/07/03 08:50:33;;;;;;;13.50;10.40;;;20.10;99.90;;;;;;5057908;28;20024;-76
2021/07/03 08:52:58;;;;;;;12.18;9.32;;;20.10;99.90;;;;;;5064879;28;20102;-76
2021/07/03 08:55:26;;;;;;;13.40;9.90;;;19.80;99.90;;;;;;5054561;28;20049;-76
2021/07/03 08:57:59;;;;;;;11.68;9.45;;;20.10;99.90;;;;;;5064537;28;20387;-76
2021/07/03 09:00:34;;;;;;;12.48;10.10;;;20.20;99.90;;;;;;5041321;28;20047;-76
2021/07/03 09:03:00;;;;;;;13.65;9.82;;;20.10;99.90;;;;;;5058395;28;20475;-76
2021/07/03 09:05:31;;;;;;;12.70;9.90;;;20.00;99.90;;;;;;5063289;28;20029;-76
2021/07/03 09:08:17;;;;;;;14.25;10.30;;;20.20;99.90;;;;;;5065131;28;20482;-76
2021/07/03 09:10:43;;;;;;;12.43;9.80;;;20.30;99.90;;;;;;5063264;28;20028;-76
2021/07/03 09:13:09;;;;;;;15.07;10.27;;;20.40;99.90;;;;;;5058247;28;20143;-76
2021/07/03 09:15:38;;;;;;;14.27;10.38;;;20.70;99.90;;;;;;5060010;28;20495;-76
2021/07/03 09:18:06;;;;;;;12.82;10.70;;;20.70;99.90;;;;;;5065101;28;20043;-76
2021/07/03 09:20:41;;;;;;;12.30;10.60;;;20.70;99.90;;;;;;5046658;28;20028;-76
2021/07/03 09:23:21;;;;;;;15.67;11.33;;;20.90;99.90;;;;;;5044234;28;20139;-76
2021/07/03 09:25:54;;;;;;;13.02;10.68;;;20.70;99.90;;;;;;5069961;28;20346;-76
2021/07/03 09:28:23;;;;;;;15.68;10.70;;;21.00;99.90;;;;;;5075612;28;20020;-76
2021/07/03 09:30:51;;;;;;;14.25;10.07;;;21.00;99.90;;;;;;5044017;28;20493;-76
2021/07/03 09:33:22;;;;;;;13.23;10.25;;;21.00;99.90;;;;;;5064008;28;20025;-76
2021/07/03 09:35:54;;;;;;;14.20;10.77;;;21.20;99.90;;;;;;5070936;28;20028;-76
2021/07/03 09:38:29;;;;;;;12.73;10.52;;;21.20;99.90;;;;;;5048691;28;20021;-76
2021/07/03 09:41:05;;;;;;;12.40;10.07;;;21.30;99.90;;;;;;5070126;28;20021;-76
2021/07/03 09:43:31;;;;;;;12.95;10.60;;;21.20;99.90;;;;;;5061869;28;20025;-76
2021/07/03 09:45:56;;;;;;;15.35;10.93;;;21.10;99.90;;;;;;5049866;28;20017;-76
2021/07/03 09:48:22;;;;;;;11.85;9.93;;;21.10;99.90;;;;;;5068735;28;20078;-76
2021/07/03 09:50:47;;;;;;;13.55;9.65;;;21.30;99.90;;;;;;5044342;28;20052;-76
2021/07/03 09:53:13;;;;;;;10.13;8.82;;;21.40;99.90;;;;;;5061565;28;20021;-76
2021/07/03 09:55:39;;;;;;;13.75;10.38;;;21.60;99.90;;;;;;5067777;28;20167;-76
2021/07/03 09:58:08;;;;;;;12.63;9.65;;;21.70;99.90;;;;;;5068668;28;20024;-76
2021/07/03 10:00:34;;;;;;;10.27;8.38;;;22.10;99.90;;;;;;5067680;28;20430;-76
2021/07/03 10:02:59;;;;;;;12.98;9.40;;;21.90;99.90;;;;;;5054302;28;20111;-77
2021/07/03 10:05:26;;;;;;;11.05;9.25;;;21.60;99.90;;;;;;5044962;28;20020;-76
2021/07/03 10:08:18;;;;;;;12.70;9.32;;;21.60;99.90;;;;;;5061496;28;20108;-76
2021/07/03 10:10:49;;;;;;;11.60;9.05;;;21.90;99.90;;;;;;5045954;28;20025;-76
2021/07/03 10:13:18;;;;;;;12.30;9.70;;;22.00;99.90;;;;;;5050305;28;20032;-76
2021/07/03 10:15:44;;;;;;;30.73;22.70;;;22.30;99.90;;;;;;5066747;28;20074;-76
2021/07/03 10:18:14;;;;;;;15.43;10.20;;;22.60;99.90;;;;;;5061260;28;20025;-76
2021/07/03 10:20:41;;;;;;;9.40;7.97;;;22.50;99.90;;;;;;5061510;28;20021;-76
2021/07/03 10:23:07;;;;;;;8.88;7.43;;;22.30;99.90;;;;;;5049842;28;20025;-76
2021/07/03 10:25:35;;;;;;;11.32;7.88;;;21.80;99.90;;;;;;5067387;28;20031;-76
2021/07/03 10:28:03;;;;;;;9.68;8.40;;;22.10;99.90;;;;;;5061335;28;20396;-76
2021/07/03 10:30:32;;;;;;;9.32;8.20;;;22.00;99.90;;;;;;5060886;28;20017;-76
2021/07/03 10:33:18;;;;;;;10.20;8.35;;;21.80;99.90;;;;;;5073498;28;20025;-76
2021/07/03 10:36:03;;;;;;;9.38;8.27;;;21.80;99.90;;;;;;5070629;28;20037;-76
2021/07/03 10:38:39;;;;;;;10.25;8.30;;;22.20;99.90;;;;;;5067193;28;20551;-76
2021/07/03 10:41:19;;;;;;;10.23;8.73;;;22.00;99.90;;;;;;5061619;28;20474;-76
2021/07/03 10:43:51;;;;;;;11.60;8.48;;;22.60;99.90;;;;;;5060759;28;20025;-76
2021/07/03 10:46:32;;;;;;;9.65;7.78;;;23.10;99.90;;;;;;5063580;28;20033;-76
2021/07/03 10:49:04;;;;;;;9.68;8.20;;;23.10;99.90;;;;;;5067459;28;20017;-76
2021/07/03 10:51:33;;;;;;;10.88;8.52;;;23.00;99.90;;;;;;5067213;28;20095;-76
2021/07/03 10:54:08;;;;;;;11.55;9.10;;;23.00;99.90;;;;;;5042563;28;20509;-76
2021/07/03 10:57:00;;;;;;;9.32;7.38;;;23.00;99.90;;;;;;5042146;28;20033;-76
2021/07/03 10:59:26;;;;;;;8.88;7.97;;;23.10;99.90;;;;;;5062654;28;20364;-76
2021/07/03 11:01:52;;;;;;;9.88;8.10;;;23.70;99.90;;;;;;5067113;28;20475;-76
2021/07/03 11:04:22;;;;;;;10.15;8.20;;;24.00;99.90;;;;;;5064846;28;20393;-76
2021/07/03 11:06:50;;;;;;;10.43;7.72;;;24.20;99.90;;;;;;5042403;28;20025;-77
2021/07/03 11:09:28;;;;;;;9.07;8.05;;;24.40;99.90;;;;;;5043921;28;20035;-76
2021/07/03 11:11:57;;;;;;;9.77;8.15;;;24.80;99.90;;;;;;5060899;28;20066;-77
2021/07/03 11:14:23;;;;;;;9.18;7.82;;;24.80;99.90;;;;;;5041986;28;20052;-76
2021/07/03 11:16:56;;;;;;;9.80;8.48;;;24.70;99.90;;;;;;5066394;28;20088;-76
2021/07/03 11:19:31;;;;;;;9.32;8.23;;;24.30;99.90;;;;;;5049021;28;20024;-76
2021/07/03 11:22:11;;;;;;;10.90;8.00;;;23.90;99.90;;;;;;5045232;28;20097;-76
2021/07/03 11:24:47;;;;;;;8.15;7.35;;;24.00;99.90;;;;;;5060223;28;20021;-76
2021/07/03 11:27:33;;;;;;;9.63;7.57;;;24.00;99.90;;;;;;5067131;28;20425;-77
2021/07/03 11:30:02;;;;;;;8.73;6.80;;;24.10;99.90;;;;;;5068008;28;20041;-77
2021/07/03 11:32:28;;;;;;;8.80;7.00;;;24.50;99.90;;;;;;5070401;28;20497;-76
2021/07/03 11:34:57;;;;;;;7.22;6.53;;;24.40;99.90;;;;;;5063194;28;20033;-76
2021/07/03 11:37:35;;;;;;;7.93;7.13;;;24.40;99.90;;;;;;5041726;28;20028;-79
2021/07/03 11:40:06;;;;;;;7.57;6.80;;;24.60;99.90;;;;;;5060978;28;20033;-77
2021/07/03 11:42:35;;;;;;;7.75;6.95;;;24.50;99.90;;;;;;5048625;28;20461;-76
2021/07/03 11:45:03;;;;;;;10.20;7.40;;;24.90;99.90;;;;;;5065232;28;20028;-77
2021/07/03 11:47:36;;;;;;;8.52;7.63;;;24.00;99.90;;;;;;5059702;28;20478;-76
2021/07/03 11:50:08;;;;;;;8.10;7.20;;;24.10;99.90;;;;;;5059556;28;20025;-76
2021/07/03 11:52:41;;;;;;;8.48;6.93;;;24.00;99.90;;;;;;5072775;28;20028;-76
2021/07/03 11:55:07;;;;;;;7.55;6.85;;;24.90;99.90;;;;;;5058884;28;20023;-76
2021/07/03 11:57:41;;;;;;;8.52;6.40;;;24.70;99.90;;;;;;5063331;28;20090;-77
2021/07/03 12:00:11;;;;;;;7.22;6.53;;;24.80;99.90;;;;;;5066126;28;20033;-76
2021/07/03 12:02:37;;;;;;;6.95;6.20;;;25.10;99.90;;;;;;5046039;28;20355;-76
2021/07/03 12:05:34;;;;;;;6.78;6.07;;;25.20;99.90;;;;;;5118677;27;20412;-77
2021/07/03 12:08:05;;;;;;;6.00;5.38;;;24.90;99.90;;;;;;5067867;28;20039;-76
2021/07/03 12:10:36;;;;;;;6.78;5.80;;;25.00;99.90;;;;;;5069112;28;20513;-76
2021/07/03 12:13:02;;;;;;;9.25;6.40;;;25.10;99.90;;;;;;5069197;28;20028;-76
2021/07/03 12:15:28;;;;;;;6.35;5.75;;;25.00;99.90;;;;;;5069136;28;20031;-76
2021/07/03 12:17:55;;;;;;;7.22;6.32;;;25.10;99.90;;;;;;5068896;28;20024;-76
2021/07/03 12:20:21;;;;;;;6.80;6.10;;;24.90;99.90;;;;;;5067619;28;20021;-76
2021/07/03 12:23:04;;;;;;;7.85;5.95;;;24.40;99.90;;;;;;5068797;28;20025;-77
2021/07/03 12:25:32;;;;;;;7.28;6.07;;;24.50;99.90;;;;;;5059931;28;20028;-76
2021/07/03 12:28:04;;;;;;;6.60;6.00;;;24.90;99.90;;;;;;5053984;28;20108;-76
2021/07/03 12:30:31;;;;;;;6.85;5.40;;;25.60;99.90;;;;;;5068536;28;20070;-77